createdAt,value
2022-10-29T12:17:16.408Z,14.63
2022-10-29T12:22:43.426Z,14.83
2022-10-29T12:53:31.180Z,14.61
2022-10-29T13:10:58.137Z,14.35
2022-10-29T13:16:18.780Z,14.48
2022-10-29T13:21:54.075Z,14.51
2022-10-29T13:27:02.992Z,14.46
2022-10-29T13:32:06.291Z,14.66
2022-10-29T13:37:48.006Z,14.75
2022-10-29T13:43:01.173Z,14.77
2022-10-29T13:48:26.635Z,14.71
2022-10-29T13:53:39.882Z,14.61
2022-10-29T13:58:52.823Z,14.65
2022-10-29T14:04:31.717Z,14.55
2022-10-29T14:09:51.760Z,14.48
2022-10-29T14:15:03.493Z,14.43
2022-10-29T14:20:06.272Z,14.48
2022-10-29T14:25:36.573Z,14.50
2022-10-29T14:30:40.751Z,14.50
2022-10-29T14:35:43.599Z,14.45
2022-10-29T14:41:33.505Z,14.44
2022-10-29T15:06:25.413Z,14.12
2022-10-29T15:11:57.580Z,14.18
2022-10-29T15:17:00.696Z,14.16
2022-10-29T15:22:14.945Z,14.17
2022-10-29T15:27:16.828Z,14.12
2022-10-29T15:32:19.027Z,14.01
2022-10-29T15:37:37.164Z,14.16
2022-10-29T15:42:41.762Z,14.14
2022-10-29T15:48:03.523Z,14.16
2022-10-29T15:53:10.037Z,14.01
2022-10-29T15:58:15.090Z,13.94
2022-10-29T16:03:22.459Z,13.95
2022-10-29T16:08:36.450Z,13.95
2022-10-29T16:13:38.345Z,13.98
2022-10-29T16:18:40.129Z,13.96
2022-10-29T16:23:44.425Z,14.00
2022-10-29T16:28:46.781Z,13.92
2022-10-29T16:33:50.263Z,13.94
2022-10-29T16:38:52.269Z,13.85
2022-10-29T16:43:54.219Z,13.96
2022-10-29T16:48:57.477Z,13.83
2022-10-29T16:53:59.284Z,13.88
2022-10-29T16:59:04.108Z,13.85
2022-10-29T17:04:09.387Z,13.74
2022-10-29T17:09:13.636Z,13.77
2022-10-29T17:14:49.819Z,13.81
2022-10-29T17:19:57.421Z,13.78
2022-10-29T17:25:25.737Z,13.68
2022-10-29T17:30:32.508Z,13.65
2022-10-29T17:35:34.342Z,13.74
2022-10-29T17:41:02.178Z,13.75
2022-10-29T17:46:08.937Z,13.73
2022-10-29T17:51:18.707Z,13.64
2022-10-29T17:56:38.559Z,13.64
2022-10-29T18:02:10.823Z,13.69
2022-10-29T18:07:15.391Z,13.60
2022-10-29T18:12:17.435Z,13.63
2022-10-29T18:17:23.887Z,13.67
2022-10-29T18:22:31.681Z,13.72
2022-10-29T18:27:33.412Z,13.62
2022-10-29T18:32:35.263Z,13.73
2022-10-29T18:37:37.258Z,13.66
2022-10-29T18:42:39.138Z,13.69
2022-10-29T18:47:41.037Z,13.62
2022-10-29T18:52:43.101Z,13.64
2022-10-29T18:57:47.851Z,13.61
2022-10-29T19:02:49.768Z,13.67
2022-10-29T19:07:53.009Z,13.70
2022-10-29T19:12:54.774Z,13.62
2022-10-29T19:17:56.918Z,13.48
2022-10-29T19:22:59.421Z,13.53
2022-10-29T19:28:03.842Z,13.49
2022-10-29T19:33:08.221Z,13.53
2022-10-29T19:38:14.341Z,13.61
2022-10-29T19:43:16.360Z,13.53
2022-10-29T19:48:26.015Z,13.58
2022-10-29T19:53:48.534Z,13.57
2022-10-29T19:59:02.710Z,13.40
2022-10-29T20:04:12.382Z,13.49
2022-10-29T20:10:06.482Z,13.36
2022-10-29T20:21:18.652Z,13.40
2022-10-29T20:32:48.983Z,13.45
2022-10-29T20:38:03.459Z,13.45
2022-10-29T20:49:51.600Z,13.45
2022-10-29T20:55:01.549Z,13.44
2022-10-29T21:00:09.878Z,13.40
2022-10-29T21:05:11.697Z,13.35
2022-10-29T21:10:13.857Z,13.30
2022-10-29T21:15:15.820Z,13.29
2022-10-29T21:20:20.116Z,13.32
2022-10-29T21:25:35.382Z,13.40
2022-10-29T21:30:37.463Z,13.44
2022-10-29T21:35:47.674Z,13.25
2022-10-29T21:41:10.628Z,13.26
2022-10-29T21:46:28.956Z,13.22
2022-10-29T21:51:44.488Z,13.24
2022-10-29T21:56:46.348Z,13.34
2022-10-29T22:01:48.440Z,13.26
2022-10-29T22:06:50.298Z,13.32
2022-10-29T22:11:52.235Z,13.32
2022-10-29T22:16:56.835Z,13.27
2022-10-29T22:21:58.675Z,13.29
2022-10-29T22:27:00.631Z,13.28
2022-10-29T22:32:04.158Z,13.28
2022-10-29T22:37:06.162Z,13.14
2022-10-29T22:42:35.118Z,13.11
2022-10-29T22:48:15.603Z,13.15
2022-10-29T22:53:17.547Z,13.09
2022-10-29T22:58:19.818Z,13.07
2022-10-29T23:03:30.539Z,13.20
2022-10-29T23:08:50.878Z,12.95
2022-10-29T23:13:58.364Z,12.91
2022-10-29T23:19:02.798Z,13.03
2022-10-29T23:24:09.907Z,12.98
2022-10-29T23:29:33.753Z,12.87
2022-10-29T23:34:40.951Z,12.92
2022-10-29T23:39:45.364Z,13.07
2022-10-29T23:44:56.232Z,13.11
2022-10-29T23:50:03.039Z,12.99
2022-10-29T23:55:28.223Z,13.01
